Columbia, Connecticut
Current Conditions -  °F | °C
As of 11:52 AM on Thursday 30 Oct 2014 (Local Time) from KIJD Reporting Station
Clear Clear  
Wind Chill: 56°   Ceiling: Unl
Heat Index: 56°   Visibility: 10mi
Dew Point: 38°   Wind: 8mph
Humidity: 51%   Direction: 340°NNW
Pressure: 29.96"   Gusts: NA
Location:  41.7°N, 72.3°W
Report Text: KIJD 301552Z AUTO 34007KT 10SM CLR 13/03 A2996 RMK AO2 SLP145 T01330033
Loading
Personal Weather Stations






























Interactive Weather Map New forecast layout! Learn more

10-Day Weather Forecast

Advertisements
Track Severe Weather on mobile